Time;durP1;ratioP1;P1;durP2;ratioP2;P2;SDS_P1;SDS_P2;PMS_P1;PMS_P2;Temp;Humidity;BMP_temperature;BMP_pressure;BME280_temperature;BME280_humidity;BME280_pressure;Samples;Min_cycle;Max_cycle;Signal;HPM_P1;HPM_P2
2023/09/04 00:00:07;;;;;;;9.07;2.85;;;;;;;;;;4408793;32;316693;-80
2023/09/04 00:02:36;;;;;;;4.00;3.12;;;;;;;;;;4399424;32;316825;-80
2023/09/04 00:05:03;;;;;;;3.40;2.95;;;;;;;;;;4399505;32;316872;-81
2023/09/04 00:07:31;;;;;;;3.12;2.83;;;;;;;;;;4389602;32;316922;-81
2023/09/04 00:09:58;;;;;;;9.88;3.65;;;;;;;;;;4392443;32;316933;-81
2023/09/04 00:12:25;;;;;;;3.37;3.08;;;;;;;;;;4399287;32;316712;-80
2023/09/04 00:14:53;;;;;;;4.22;2.97;;;;;;;;;;4388793;32;319672;-82
2023/09/04 00:17:20;;;;;;;7.00;3.45;;;;;;;;;;4399205;32;316662;-81
2023/09/04 00:19:49;;;;;;;7.10;3.30;;;;;;;;;;4386194;32;316957;-84
2023/09/04 00:22:17;;;;;;;4.72;2.95;;;;;;;;;;4398879;32;316776;-81
2023/09/04 00:24:44;;;;;;;7.30;3.03;;;;;;;;;;4388721;32;317168;-81
2023/09/04 00:27:11;;;;;;;5.30;3.12;;;;;;;;;;4399338;32;317107;-81
2023/09/04 00:29:39;;;;;;;3.97;2.97;;;;;;;;;;4386294;32;316848;-84
2023/09/04 00:32:07;;;;;;;4.30;3.10;;;;;;;;;;4397605;32;316898;-81
2023/09/04 00:34:34;;;;;;;4.80;3.30;;;;;;;;;;4386425;32;316746;-80
2023/09/04 00:37:04;;;;;;;3.28;2.97;;;;;;;;;;4397665;32;317309;-87
2023/09/04 00:39:31;;;;;;;4.50;3.20;;;;;;;;;;4386542;32;316814;-82
2023/09/04 00:41:59;;;;;;;3.40;2.97;;;;;;;;;;4395350;32;316991;-82
2023/09/04 00:44:26;;;;;;;6.40;3.60;;;;;;;;;;4396641;32;316753;-82
2023/09/04 00:46:53;;;;;;;4.53;3.30;;;;;;;;;;4387176;32;416197;-82
2023/09/04 00:49:21;;;;;;;3.55;3.22;;;;;;;;;;4398428;32;337008;-82
2023/09/04 00:51:49;;;;;;;7.47;3.72;;;;;;;;;;4385675;32;317086;-80
2023/09/04 00:54:19;;;;;;;4.18;3.58;;;;;;;;;;4398806;32;317071;-80
2023/09/04 00:56:51;;;;;;;5.50;3.50;;;;;;;;;;4387801;32;317083;-82
2023/09/04 00:59:18;;;;;;;6.93;3.70;;;;;;;;;;4398638;32;316796;-81
2023/09/04 01:01:46;;;;;;;4.20;3.60;;;;;;;;;;4383639;32;316860;-81
2023/09/04 01:04:13;;;;;;;4.62;4.22;;;;;;;;;;4397631;32;317041;-81
2023/09/04 01:06:41;;;;;;;5.68;3.95;;;;;;;;;;4389326;32;317077;-82
2023/09/04 01:09:09;;;;;;;7.68;3.75;;;;;;;;;;4396783;32;316723;-82
2023/09/04 01:11:47;;;;;;;5.80;3.67;;;;;;;;;;4385061;32;316771;-79
2023/09/04 01:14:19;;;;;;;4.75;4.25;;;;;;;;;;4397801;32;316602;-80
2023/09/04 01:16:47;;;;;;;4.22;3.83;;;;;;;;;;4388372;32;317107;-80
2023/09/04 01:19:17;;;;;;;5.40;3.50;;;;;;;;;;4396979;32;316948;-81
2023/09/04 01:21:46;;;;;;;5.75;3.62;;;;;;;;;;4384922;32;317007;-82
2023/09/04 01:24:13;;;;;;;5.18;4.12;;;;;;;;;;4396344;32;317040;-82
2023/09/04 01:26:46;;;;;;;5.12;4.62;;;;;;;;;;4387056;32;316971;-81
2023/09/04 01:29:21;;;;;;;8.00;4.43;;;;;;;;;;4397708;32;316852;-81
2023/09/04 01:31:55;;;;;;;5.97;4.35;;;;;;;;;;4383741;32;316697;-80
2023/09/04 01:34:26;;;;;;;7.78;4.25;;;;;;;;;;4396246;32;346349;-80
2023/09/04 01:36:58;;;;;;;7.57;3.92;;;;;;;;;;4384846;32;416256;-81
2023/09/04 01:39:26;;;;;;;4.95;4.50;;;;;;;;;;4395816;32;316824;-80
2023/09/04 01:41:54;;;;;;;4.32;3.87;;;;;;;;;;4381514;32;415847;-81
2023/09/04 01:44:21;;;;;;;9.35;4.20;;;;;;;;;;4396178;32;352799;-83
2023/09/04 01:46:48;;;;;;;5.68;4.28;;;;;;;;;;4368514;32;316999;-80
2023/09/04 01:49:16;;;;;;;6.12;4.90;;;;;;;;;;4394446;32;326976;-82
2023/09/04 01:51:43;;;;;;;5.40;4.25;;;;;;;;;;4385551;32;317015;-81
2023/09/04 01:54:12;;;;;;;5.80;4.43;;;;;;;;;;4398671;32;317109;-83
2023/09/04 01:56:40;;;;;;;7.25;5.53;;;;;;;;;;4397865;32;316783;-80
2023/09/04 01:59:07;;;;;;;6.53;5.07;;;;;;;;;;4382664;32;327074;-82
2023/09/04 02:01:35;;;;;;;6.20;5.53;;;;;;;;;;4397879;32;316690;-80
2023/09/04 02:04:02;;;;;;;5.32;4.82;;;;;;;;;;4386070;32;316955;-81
2023/09/04 02:06:32;;;;;;;21.30;15.20;;;;;;;;;;4395778;32;317102;-81
2023/09/04 02:08:59;;;;;;;22.60;15.02;;;;;;;;;;4379836;32;319082;-81
2023/09/04 02:11:28;;;;;;;9.02;7.55;;;;;;;;;;4396883;32;322063;-81
2023/09/04 02:13:56;;;;;;;7.65;6.65;;;;;;;;;;4386752;32;316767;-81
2023/09/04 02:16:23;;;;;;;8.05;6.45;;;;;;;;;;4394637;32;315953;-81
2023/09/04 02:18:51;;;;;;;9.25;5.82;;;;;;;;;;4388296;32;316868;-82
2023/09/04 02:21:19;;;;;;;6.25;5.65;;;;;;;;;;4394047;32;316659;-81
2023/09/04 02:23:46;;;;;;;7.22;6.07;;;;;;;;;;4384239;32;316775;-81
2023/09/04 02:26:14;;;;;;;6.40;5.80;;;;;;;;;;4397090;32;316530;-81
2023/09/04 02:28:43;;;;;;;6.50;5.37;;;;;;;;;;4396406;32;337716;-80
2023/09/04 02:31:11;;;;;;;8.68;5.30;;;;;;;;;;4375640;32;416196;-82
2023/09/04 02:33:38;;;;;;;6.85;5.05;;;;;;;;;;4396578;32;318078;-82
2023/09/04 02:36:06;;;;;;;7.87;5.18;;;;;;;;;;4385745;32;316862;-82
2023/09/04 02:38:35;;;;;;;11.40;5.62;;;;;;;;;;4395085;32;316911;-81
2023/09/04 02:41:02;;;;;;;10.15;9.02;;;;;;;;;;4381623;32;317982;-80
2023/09/04 02:43:31;;;;;;;7.75;7.03;;;;;;;;;;4396644;32;317994;-81
2023/09/04 02:46:00;;;;;;;8.82;6.03;;;;;;;;;;4370804;32;316696;-81
2023/09/04 02:48:28;;;;;;;6.32;4.62;;;;;;;;;;4396327;32;316803;-88
2023/09/04 02:50:59;;;;;;;7.70;5.10;;;;;;;;;;4385429;32;316966;-84
2023/09/04 02:53:27;;;;;;;10.00;5.28;;;;;;;;;;4392757;32;316872;-81
2023/09/04 02:55:55;;;;;;;5.18;4.72;;;;;;;;;;4388199;32;317673;-82
2023/09/04 02:58:23;;;;;;;4.97;4.47;;;;;;;;;;4395305;32;316634;-81
2023/09/04 03:00:51;;;;;;;7.23;5.03;;;;;;;;;;4385293;32;316998;-83
2023/09/04 03:03:20;;;;;;;7.15;5.07;;;;;;;;;;4394289;32;316769;-79
2023/09/04 03:05:47;;;;;;;6.45;5.37;;;;;;;;;;4387196;32;316717;-79
2023/09/04 03:08:15;;;;;;;6.05;4.60;;;;;;;;;;4395403;32;316657;-82
2023/09/04 03:10:43;;;;;;;5.43;4.05;;;;;;;;;;4387520;32;316701;-86
2023/09/04 03:13:10;;;;;;;5.45;4.95;;;;;;;;;;4392462;32;316792;-82
2023/09/04 03:15:38;;;;;;;5.50;4.95;;;;;;;;;;4397390;32;316778;-82
2023/09/04 03:18:05;;;;;;;4.40;4.00;;;;;;;;;;4383833;32;316733;-82
2023/09/04 03:20:34;;;;;;;10.45;4.70;;;;;;;;;;4397573;32;316658;-82
2023/09/04 03:23:02;;;;;;;7.75;4.95;;;;;;;;;;4384702;32;317846;-82
2023/09/04 03:25:29;;;;;;;6.32;5.05;;;;;;;;;;4395795;32;316905;-82
2023/09/04 03:27:57;;;;;;;4.85;4.20;;;;;;;;;;4387280;32;317024;-83
2023/09/04 03:30:24;;;;;;;12.05;4.78;;;;;;;;;;4398258;32;316580;-82
2023/09/04 03:32:51;;;;;;;5.25;4.35;;;;;;;;;;4386018;32;317787;-82
2023/09/04 03:35:19;;;;;;;4.78;3.70;;;;;;;;;;4390649;32;316818;-82
2023/09/04 03:37:47;;;;;;;3.67;3.33;;;;;;;;;;4383376;32;316632;-82
2023/09/04 03:40:18;;;;;;;7.30;3.72;;;;;;;;;;4400860;32;316880;-82
2023/09/04 03:42:46;;;;;;;5.30;3.80;;;;;;;;;;4389662;32;316656;-82
2023/09/04 03:45:14;;;;;;;4.50;4.10;;;;;;;;;;4394886;32;316641;-82
2023/09/04 03:47:42;;;;;;;7.32;4.40;;;;;;;;;;4399074;32;316979;-82
2023/09/04 03:50:11;;;;;;;4.10;3.70;;;;;;;;;;4381353;32;416227;-83
2023/09/04 03:52:40;;;;;;;7.20;5.10;;;;;;;;;;4398492;32;316790;-82
2023/09/04 03:55:10;;;;;;;8.50;3.80;;;;;;;;;;4385773;32;327739;-82
2023/09/04 03:57:39;;;;;;;6.53;3.95;;;;;;;;;;4399029;32;316649;-82
2023/09/04 04:00:14;;;;;;;5.12;4.43;;;;;;;;;;4389190;32;316644;-81
2023/09/04 04:02:41;;;;;;;4.70;3.60;;;;;;;;;;4399370;32;316618;-81
2023/09/04 04:05:10;;;;;;;5.30;3.87;;;;;;;;;;4383507;32;415962;-82
2023/09/04 04:07:38;;;;;;;3.90;3.40;;;;;;;;;;4399575;32;316807;-82
2023/09/04 04:10:06;;;;;;;5.22;3.22;;;;;;;;;;4387905;32;328418;-82
2023/09/04 04:12:35;;;;;;;4.97;3.55;;;;;;;;;;4400303;32;316083;-82
2023/09/04 04:15:05;;;;;;;4.20;2.33;;;;;;;;;;4385872;32;316771;-83
2023/09/04 04:17:33;;;;;;;5.05;2.40;;;;;;;;;;4397678;32;316787;-79
2023/09/04 04:20:01;;;;;;;4.93;3.03;;;;;;;;;;4389474;32;316775;-82
2023/09/04 04:22:28;;;;;;;31.48;13.70;;;;;;;;;;4400131;32;344142;-81
2023/09/04 04:24:55;;;;;;;45.63;25.20;;;;;;;;;;4384550;32;319357;-82
2023/09/04 04:27:23;;;;;;;17.75;9.15;;;;;;;;;;4399280;32;318689;-83
2023/09/04 04:29:54;;;;;;;7.90;4.45;;;;;;;;;;4385717;32;317761;-83
2023/09/04 04:32:22;;;;;;;9.18;4.90;;;;;;;;;;4400066;32;316843;-82
2023/09/04 04:34:50;;;;;;;8.43;4.22;;;;;;;;;;4386752;32;316610;-82
2023/09/04 04:37:18;;;;;;;3.97;2.42;;;;;;;;;;4396998;32;316854;-83
2023/09/04 04:39:46;;;;;;;3.85;2.20;;;;;;;;;;4388375;32;317113;-82
2023/09/04 04:42:13;;;;;;;3.92;2.78;;;;;;;;;;4398744;32;316673;-82
2023/09/04 04:44:40;;;;;;;3.33;2.58;;;;;;;;;;4397404;32;316590;-82
2023/09/04 04:47:09;;;;;;;3.37;2.75;;;;;;;;;;4382150;32;416111;-82
2023/09/04 04:49:37;;;;;;;3.22;1.92;;;;;;;;;;4399213;32;316501;-82
2023/09/04 04:52:05;;;;;;;3.40;2.62;;;;;;;;;;4387866;32;317099;-82
2023/09/04 04:54:33;;;;;;;2.85;1.80;;;;;;;;;;4395894;32;316773;-81
2023/09/04 04:57:00;;;;;;;2.87;1.93;;;;;;;;;;4383200;32;350643;-82
2023/09/04 04:59:28;;;;;;;3.15;1.95;;;;;;;;;;4398632;32;316584;-82
2023/09/04 05:01:58;;;;;;;4.80;2.10;;;;;;;;;;4386230;32;316812;-82
2023/09/04 05:04:27;;;;;;;3.12;1.67;;;;;;;;;;4399387;32;316885;-81
2023/09/04 05:06:54;;;;;;;2.87;1.83;;;;;;;;;;4386500;32;316713;-84
2023/09/04 05:09:22;;;;;;;3.47;1.90;;;;;;;;;;4400086;32;316729;-81
2023/09/04 05:11:49;;;;;;;2.53;1.73;;;;;;;;;;4388528;32;316641;-82
2023/09/04 05:14:16;;;;;;;2.58;1.80;;;;;;;;;;4398702;32;316647;-82
2023/09/04 05:16:44;;;;;;;2.47;2.10;;;;;;;;;;4388135;32;316945;-82
2023/09/04 05:19:12;;;;;;;5.25;1.83;;;;;;;;;;4393643;32;351261;-83
2023/09/04 05:21:41;;;;;;;5.05;3.33;;;;;;;;;;4399608;32;316460;-82
2023/09/04 05:24:08;;;;;;;5.00;2.10;;;;;;;;;;4386064;32;386925;-82
2023/09/04 05:26:35;;;;;;;5.68;4.35;;;;;;;;;;4398576;32;316565;-82
2023/09/04 05:29:03;;;;;;;2.92;1.98;;;;;;;;;;4383914;32;316729;-82
2023/09/04 05:31:30;;;;;;;6.90;2.20;;;;;;;;;;4399292;32;316585;-82
2023/09/04 05:33:58;;;;;;;8.45;2.83;;;;;;;;;;4388911;32;316679;-79
2023/09/04 05:36:25;;;;;;;5.22;2.08;;;;;;;;;;4396513;32;316480;-80
2023/09/04 05:38:54;;;;;;;13.15;4.20;;;;;;;;;;4385534;32;316850;-82
2023/09/04 05:41:21;;;;;;;7.00;2.83;;;;;;;;;;4393645;32;317776;-92
2023/09/04 05:43:49;;;;;;;4.82;1.70;;;;;;;;;;4388391;32;316714;-80
2023/09/04 05:46:16;;;;;;;2.85;1.75;;;;;;;;;;4397227;32;324823;-80
2023/09/04 05:48:43;;;;;;;3.12;2.30;;;;;;;;;;4385637;32;316705;-79
2023/09/04 05:51:11;;;;;;;5.70;2.75;;;;;;;;;;4395348;32;316725;-79
2023/09/04 05:53:38;;;;;;;8.35;2.12;;;;;;;;;;4398865;32;316577;-79
2023/09/04 05:56:09;;;;;;;6.45;1.92;;;;;;;;;;4388649;32;316616;-84
2023/09/04 05:58:44;;;;;;;2.03;1.60;;;;;;;;;;4396874;32;316808;-78
2023/09/04 06:01:12;;;;;;;2.92;2.20;;;;;;;;;;4380170;32;415785;-81
2023/09/04 06:03:39;;;;;;;7.03;1.90;;;;;;;;;;4396266;32;316873;-78
2023/09/04 06:06:07;;;;;;;4.25;2.25;;;;;;;;;;4387942;32;316933;-82
2023/09/04 06:08:35;;;;;;;2.60;2.03;;;;;;;;;;4397115;32;316801;-77
2023/09/04 06:11:03;;;;;;;1.90;1.70;;;;;;;;;;4381934;32;316602;-79
2023/09/04 06:13:32;;;;;;;11.00;2.55;;;;;;;;;;4398851;32;316807;-78
2023/09/04 06:16:01;;;;;;;3.35;2.15;;;;;;;;;;4387230;32;317669;-81
2023/09/04 06:18:29;;;;;;;5.25;2.70;;;;;;;;;;4393828;32;316898;-82
2023/09/04 06:20:57;;;;;;;2.05;1.85;;;;;;;;;;4383613;32;316685;-79
2023/09/04 06:23:24;;;;;;;1.65;1.55;;;;;;;;;;4396701;32;316870;-80
2023/09/04 06:25:51;;;;;;;2.75;1.80;;;;;;;;;;4384202;32;316717;-81
2023/09/04 06:28:19;;;;;;;7.55;3.72;;;;;;;;;;4398644;32;317107;-80
2023/09/04 06:30:49;;;;;;;3.53;2.00;;;;;;;;;;4387365;32;342862;-80
2023/09/04 06:33:16;;;;;;;2.67;2.22;;;;;;;;;;4396331;32;316854;-80
2023/09/04 06:35:44;;;;;;;2.10;1.90;;;;;;;;;;4387536;32;316665;-80
2023/09/04 06:38:12;;;;;;;3.05;2.42;;;;;;;;;;4394041;32;316779;-82
2023/09/04 06:40:40;;;;;;;10.30;2.28;;;;;;;;;;4397575;32;316622;-79
2023/09/04 06:43:07;;;;;;;4.47;2.10;;;;;;;;;;4382349;32;317924;-80
2023/09/04 06:45:35;;;;;;;3.00;2.70;;;;;;;;;;4395846;32;316637;-79
2023/09/04 06:48:04;;;;;;;3.17;2.80;;;;;;;;;;4388161;32;316569;-80
2023/09/04 06:50:32;;;;;;;3.37;2.60;;;;;;;;;;4396221;32;317024;-79
2023/09/04 06:53:01;;;;;;;4.95;2.95;;;;;;;;;;4384990;32;316894;-81
2023/09/04 06:55:28;;;;;;;4.93;2.25;;;;;;;;;;4397889;32;316791;-81
2023/09/04 06:57:56;;;;;;;4.12;2.58;;;;;;;;;;4384313;32;317024;-80
2023/09/04 07:00:23;;;;;;;4.53;3.83;;;;;;;;;;4398516;32;317027;-79
2023/09/04 07:02:53;;;;;;;4.00;2.97;;;;;;;;;;4385869;32;316749;-81
2023/09/04 07:05:23;;;;;;;2.33;2.12;;;;;;;;;;4397937;32;316838;-79
2023/09/04 07:07:50;;;;;;;2.25;1.98;;;;;;;;;;4388229;32;316762;-80
2023/09/04 07:10:18;;;;;;;2.53;1.80;;;;;;;;;;4397174;32;316586;-80
2023/09/04 07:12:45;;;;;;;3.12;2.00;;;;;;;;;;4387644;32;316689;-80
2023/09/04 07:15:12;;;;;;;1.67;1.55;;;;;;;;;;4396134;32;333834;-81
2023/09/04 07:17:40;;;;;;;2.65;2.10;;;;;;;;;;4401063;32;317004;-80
2023/09/04 07:20:10;;;;;;;2.60;1.98;;;;;;;;;;4388311;32;324610;-80
2023/09/04 07:22:39;;;;;;;6.20;1.70;;;;;;;;;;4401261;32;316863;-81
2023/09/04 07:25:08;;;;;;;2.85;1.80;;;;;;;;;;4385044;32;316907;-82
2023/09/04 07:27:35;;;;;;;2.70;2.08;;;;;;;;;;4401249;32;316996;-80
2023/09/04 07:30:02;;;;;;;4.20;1.92;;;;;;;;;;4389313;32;316922;-81
2023/09/04 07:32:30;;;;;;;2.62;1.70;;;;;;;;;;4401178;32;316614;-81
2023/09/04 07:34:57;;;;;;;5.50;1.80;;;;;;;;;;4386631;32;316833;-82
2023/09/04 07:37:26;;;;;;;2.40;1.92;;;;;;;;;;4400680;32;317172;-81
2023/09/04 07:39:56;;;;;;;3.92;1.95;;;;;;;;;;4388146;32;316874;-81
2023/09/04 07:42:24;;;;;;;3.05;2.40;;;;;;;;;;4401141;32;316974;-81
2023/09/04 07:44:53;;;;;;;4.10;1.60;;;;;;;;;;4387257;32;316647;-81
2023/09/04 07:47:21;;;;;;;2.53;1.67;;;;;;;;;;4385287;32;317192;-81
2023/09/04 07:49:50;;;;;;;3.90;1.70;;;;;;;;;;4388003;32;317006;-81
2023/09/04 07:52:17;;;;;;;2.12;1.70;;;;;;;;;;4398101;32;316841;-81
2023/09/04 07:54:47;;;;;;;4.35;1.95;;;;;;;;;;4386247;32;316920;-82
2023/09/04 07:57:16;;;;;;;2.60;1.77;;;;;;;;;;4396121;32;316629;-84
2023/09/04 07:59:43;;;;;;;5.35;1.60;;;;;;;;;;4388586;32;316638;-80
2023/09/04 08:02:11;;;;;;;2.17;1.80;;;;;;;;;;4399504;32;316938;-81
2023/09/04 08:04:38;;;;;;;2.75;1.80;;;;;;;;;;4399996;32;317677;-80
2023/09/04 08:07:06;;;;;;;5.32;2.10;;;;;;;;;;4386880;32;316712;-80
2023/09/04 08:09:33;;;;;;;7.75;1.83;;;;;;;;;;4399090;32;316876;-80
2023/09/04 08:12:01;;;;;;;2.03;1.62;;;;;;;;;;4387161;32;316844;-81
2023/09/04 08:14:35;;;;;;;3.25;1.73;;;;;;;;;;4401002;32;316718;-80
2023/09/04 08:17:03;;;;;;;1.92;1.52;;;;;;;;;;4382519;32;316846;-81
2023/09/04 08:19:30;;;;;;;2.03;1.58;;;;;;;;;;4397556;32;340385;-81
2023/09/04 08:21:59;;;;;;;3.15;1.80;;;;;;;;;;4389672;32;316715;-80
2023/09/04 08:24:26;;;;;;;2.22;1.80;;;;;;;;;;4398945;32;316898;-81
2023/09/04 08:26:54;;;;;;;2.47;1.87;;;;;;;;;;4384855;32;316805;-83
2023/09/04 08:29:22;;;;;;;1.87;1.33;;;;;;;;;;4396996;32;316696;-81
2023/09/04 08:31:50;;;;;;;3.85;2.05;;;;;;;;;;4389850;32;316961;-80
2023/09/04 08:34:18;;;;;;;3.65;2.22;;;;;;;;;;4385392;32;316697;-81
2023/09/04 08:36:46;;;;;;;4.53;1.77;;;;;;;;;;4390078;32;318129;-81
2023/09/04 08:39:13;;;;;;;1.40;1.25;;;;;;;;;;4396127;32;316784;-80
2023/09/04 08:41:42;;;;;;;4.95;2.95;;;;;;;;;;4399647;32;316624;-81
2023/09/04 08:44:10;;;;;;;4.45;1.70;;;;;;;;;;4370086;32;419515;-81
2023/09/04 08:46:43;;;;;;;15.70;2.85;;;;;;;;;;4382840;32;315852;-81
2023/09/04 08:49:12;;;;;;;2.05;1.70;;;;;;;;;;4368096;32;416442;-80
2023/09/04 08:51:40;;;;;;;5.35;2.42;;;;;;;;;;4383747;32;316762;-81
2023/09/04 08:54:07;;;;;;;10.15;2.78;;;;;;;;;;4371988;32;316805;-81
2023/09/04 08:56:35;;;;;;;3.08;2.00;;;;;;;;;;4383262;32;317772;-80
2023/09/04 08:59:02;;;;;;;2.97;2.20;;;;;;;;;;4367919;32;316838;-80
2023/09/04 09:01:33;;;;;;;3.45;2.37;;;;;;;;;;4384766;32;316818;-81
2023/09/04 09:04:01;;;;;;;3.93;2.13;;;;;;;;;;4374630;32;316855;-81
2023/09/04 09:06:31;;;;;;;3.90;2.00;;;;;;;;;;4384712;32;316789;-81
2023/09/04 09:09:03;;;;;;;3.35;2.03;;;;;;;;;;4370077;32;327980;-80
2023/09/04 09:11:30;;;;;;;2.85;2.10;;;;;;;;;;4382779;32;316874;-83
2023/09/04 09:13:58;;;;;;;6.55;2.28;;;;;;;;;;4371803;32;317114;-77
2023/09/04 09:16:25;;;;;;;24.20;13.80;;;;;;;;;;4375620;32;316670;-79
2023/09/04 09:18:55;;;;;;;7.00;3.20;;;;;;;;;;4369989;32;318558;-80
2023/09/04 09:21:25;;;;;;;3.85;2.47;;;;;;;;;;4381229;32;316837;-79
2023/09/04 09:24:16;;;;;;;6.40;2.00;;;;;;;;;;4372410;32;316702;-80
2023/09/04 09:26:45;;;;;;;6.10;1.70;;;;;;;;;;4372646;32;317043;-79
2023/09/04 09:29:13;;;;;;;3.60;2.47;;;;;;;;;;4382058;32;316549;-79
2023/09/04 09:31:43;;;;;;;2.15;1.80;;;;;;;;;;4383796;32;316656;-79
2023/09/04 09:34:12;;;;;;;1.95;1.75;;;;;;;;;;4368819;32;417718;-79
2023/09/04 09:36:39;;;;;;;1.98;1.70;;;;;;;;;;4381422;32;316948;-80
2023/09/04 09:39:07;;;;;;;2.47;2.28;;;;;;;;;;4369479;32;317019;-80
2023/09/04 09:41:36;;;;;;;4.70;2.47;;;;;;;;;;4382643;32;316643;-79
2023/09/04 09:44:04;;;;;;;23.62;10.95;;;;;;;;;;4372047;32;317013;-79
2023/09/04 09:46:36;;;;;;;6.37;2.53;;;;;;;;;;4381669;32;318884;-80
2023/09/04 09:49:03;;;;;;;2.55;2.12;;;;;;;;;;4369973;32;316969;-81
2023/09/04 09:51:33;;;;;;;6.20;2.55;;;;;;;;;;4382722;32;316814;-79
2023/09/04 09:54:00;;;;;;;5.82;2.65;;;;;;;;;;4373774;32;316770;-79
2023/09/04 09:56:28;;;;;;;4.60;2.10;;;;;;;;;;4382395;32;316864;-81
2023/09/04 09:58:58;;;;;;;2.90;2.58;;;;;;;;;;4367860;32;316846;-79
2023/09/04 10:01:31;;;;;;;3.25;2.30;;;;;;;;;;4381548;32;317264;-80
2023/09/04 10:04:00;;;;;;;4.57;2.22;;;;;;;;;;4372374;32;317169;-80
2023/09/04 10:06:34;;;;;;;3.22;2.20;;;;;;;;;;4382944;32;316723;-82
2023/09/04 10:09:02;;;;;;;4.00;2.87;;;;;;;;;;4367998;32;316951;-81
2023/09/04 10:11:33;;;;;;;5.10;2.80;;;;;;;;;;4381746;32;317112;-77
2023/09/04 10:14:08;;;;;;;3.05;2.22;;;;;;;;;;4372461;32;316769;-80
2023/09/04 10:16:41;;;;;;;3.45;2.30;;;;;;;;;;4381884;32;350391;-80
2023/09/04 10:19:13;;;;;;;3.30;2.83;;;;;;;;;;4364386;32;416289;-80
2023/09/04 10:21:47;;;;;;;5.20;2.33;;;;;;;;;;4381034;32;353565;-80
2023/09/04 10:24:15;;;;;;;3.10;2.60;;;;;;;;;;4370166;32;416131;-80
2023/09/04 10:26:48;;;;;;;3.47;2.25;;;;;;;;;;4382430;32;316913;-80
2023/09/04 10:29:24;;;;;;;2.85;2.45;;;;;;;;;;4366636;32;415799;-80
2023/09/04 10:31:52;;;;;;;4.35;3.05;;;;;;;;;;4372964;32;316950;-81
2023/09/04 10:34:20;;;;;;;4.45;2.87;;;;;;;;;;4383776;32;316875;-80
2023/09/04 10:36:49;;;;;;;2.50;2.30;;;;;;;;;;4372397;32;316940;-80
2023/09/04 10:39:17;;;;;;;3.05;2.40;;;;;;;;;;4381059;32;316759;-80
2023/09/04 10:41:44;;;;;;;3.40;2.87;;;;;;;;;;4372504;32;316799;-81
2023/09/04 10:44:12;;;;;;;3.17;2.83;;;;;;;;;;4382126;32;316805;-80
2023/09/04 10:46:56;;;;;;;5.53;2.50;;;;;;;;;;4382421;32;316921;-80
2023/09/04 10:49:31;;;;;;;2.62;2.37;;;;;;;;;;4367191;32;416116;-79
2023/09/04 10:51:59;;;;;;;6.82;3.30;;;;;;;;;;4370529;32;317023;-79
2023/09/04 10:54:27;;;;;;;6.43;2.67;;;;;;;;;;4382496;32;317303;-80
2023/09/04 10:56:56;;;;;;;3.75;2.58;;;;;;;;;;4366885;32;316936;-79
2023/09/04 10:59:24;;;;;;;4.82;2.67;;;;;;;;;;4380801;32;316980;-79
2023/09/04 11:01:53;;;;;;;5.18;3.10;;;;;;;;;;4371730;32;317364;-80
2023/09/04 11:04:45;;;;;;;4.30;3.17;;;;;;;;;;4381272;32;317083;-80
2023/09/04 11:07:28;;;;;;;3.80;3.50;;;;;;;;;;4362692;32;417815;-80
2023/09/04 11:10:03;;;;;;;4.22;3.33;;;;;;;;;;4372717;32;316675;-79
2023/09/04 11:12:35;;;;;;;3.47;3.17;;;;;;;;;;4381059;32;316883;-80
2023/09/04 11:15:03;;;;;;;4.30;3.90;;;;;;;;;;4366063;32;316970;-79
2023/09/04 11:17:33;;;;;;;4.25;2.45;;;;;;;;;;4382501;32;317116;-80
2023/09/04 11:20:00;;;;;;;3.35;3.05;;;;;;;;;;4372884;32;316828;-79
2023/09/04 11:22:28;;;;;;;3.97;3.22;;;;;;;;;;4380461;32;316954;-82
2023/09/04 11:24:55;;;;;;;3.12;2.83;;;;;;;;;;4371157;32;316806;-79
2023/09/04 11:27:24;;;;;;;3.33;3.00;;;;;;;;;;4379510;32;316876;-80
2023/09/04 11:29:52;;;;;;;3.95;3.30;;;;;;;;;;4371005;32;316850;-82
2023/09/04 11:32:20;;;;;;;5.12;3.95;;;;;;;;;;4382387;32;316982;-79
2023/09/04 11:34:51;;;;;;;6.62;3.85;;;;;;;;;;4370512;32;367557;-82
2023/09/04 11:37:19;;;;;;;3.00;2.70;;;;;;;;;;4378119;32;317279;-80
2023/09/04 11:39:53;;;;;;;5.43;3.78;;;;;;;;;;4368999;32;316873;-81
2023/09/04 11:42:22;;;;;;;3.50;3.20;;;;;;;;;;4380762;32;317300;-81
2023/09/04 11:44:50;;;;;;;3.13;2.83;;;;;;;;;;4353273;32;317096;-81
2023/09/04 11:47:18;;;;;;;7.30;3.50;;;;;;;;;;4382345;32;316716;-81
2023/09/04 11:49:46;;;;;;;6.80;2.97;;;;;;;;;;4371000;32;316818;-80
2023/09/04 11:52:17;;;;;;;3.85;2.72;;;;;;;;;;4377558;32;316818;-81
2023/09/04 11:54:46;;;;;;;4.53;3.62;;;;;;;;;;4371523;32;316981;-81
2023/09/04 11:57:13;;;;;;;5.45;3.78;;;;;;;;;;4380348;32;316992;-81
2023/09/04 11:59:43;;;;;;;4.28;3.85;;;;;;;;;;4372117;32;373498;-81
2023/09/04 12:02:11;;;;;;;6.72;3.47;;;;;;;;;;4381419;32;316890;-80
2023/09/04 12:04:38;;;;;;;5.18;3.80;;;;;;;;;;4386229;32;316924;-80
2023/09/04 12:07:07;;;;;;;3.10;2.80;;;;;;;;;;4371383;32;416035;-80
2023/09/04 12:09:37;;;;;;;3.50;3.20;;;;;;;;;;4385203;32;316772;-80
2023/09/04 12:12:06;;;;;;;8.77;3.60;;;;;;;;;;4370626;32;329009;-81
2023/09/04 12:14:33;;;;;;;4.55;3.75;;;;;;;;;;4383177;32;316981;-81
2023/09/04 12:17:00;;;;;;;6.07;4.00;;;;;;;;;;4372127;32;316821;-80
2023/09/04 12:19:28;;;;;;;4.03;3.58;;;;;;;;;;4383826;32;316914;-81
2023/09/04 12:22:10;;;;;;;4.60;3.60;;;;;;;;;;4371218;32;317023;-81
2023/09/04 12:24:39;;;;;;;4.80;3.65;;;;;;;;;;4384195;32;316950;-81
2023/09/04 12:27:08;;;;;;;5.07;4.22;;;;;;;;;;4367131;32;419071;-79
2023/09/04 12:29:36;;;;;;;3.60;3.30;;;;;;;;;;4383996;32;316695;-81
2023/09/04 12:32:04;;;;;;;8.38;4.10;;;;;;;;;;4369119;32;316845;-81
2023/09/04 12:34:32;;;;;;;7.00;3.80;;;;;;;;;;4384157;32;326899;-81
2023/09/04 12:37:00;;;;;;;4.07;3.67;;;;;;;;;;4373695;32;316819;-80
2023/09/04 12:39:31;;;;;;;4.97;3.92;;;;;;;;;;4384578;32;316850;-82
2023/09/04 12:42:02;;;;;;;4.80;3.60;;;;;;;;;;4366377;32;316438;-81
2023/09/04 12:44:30;;;;;;;8.60;4.10;;;;;;;;;;4384997;32;316852;-80
2023/09/04 12:46:57;;;;;;;5.12;4.25;;;;;;;;;;4370604;32;317094;-80
2023/09/04 12:49:25;;;;;;;8.98;4.43;;;;;;;;;;4384197;32;317208;-80
2023/09/04 12:51:55;;;;;;;4.70;4.30;;;;;;;;;;4371716;32;317050;-81
2023/09/04 12:54:22;;;;;;;4.35;3.55;;;;;;;;;;4384824;32;316750;-81
2023/09/04 12:56:50;;;;;;;6.87;4.47;;;;;;;;;;4372808;32;331152;-81
2023/09/04 12:59:19;;;;;;;4.55;3.67;;;;;;;;;;4383612;32;316905;-80
2023/09/04 13:01:47;;;;;;;5.62;4.50;;;;;;;;;;4373333;32;316894;-81
2023/09/04 13:04:18;;;;;;;4.85;3.75;;;;;;;;;;4383091;32;316921;-80
2023/09/04 13:06:45;;;;;;;4.70;4.30;;;;;;;;;;4373706;32;317142;-81
2023/09/04 13:09:13;;;;;;;4.25;3.50;;;;;;;;;;4384108;32;351801;-81
2023/09/04 13:11:40;;;;;;;4.25;3.87;;;;;;;;;;4374781;32;316880;-83
2023/09/04 13:14:08;;;;;;;5.00;4.57;;;;;;;;;;4377658;32;317211;-80
2023/09/04 13:16:37;;;;;;;5.62;3.58;;;;;;;;;;4384092;32;316958;-80
2023/09/04 13:19:05;;;;;;;6.97;3.80;;;;;;;;;;4373540;32;316905;-80
2023/09/04 13:21:32;;;;;;;5.55;4.22;;;;;;;;;;4382576;32;329131;-81
2023/09/04 13:24:00;;;;;;;4.90;4.05;;;;;;;;;;4367786;32;317055;-80
2023/09/04 13:26:27;;;;;;;5.55;4.28;;;;;;;;;;4383084;32;316735;-80
2023/09/04 13:28:55;;;;;;;3.50;3.20;;;;;;;;;;4371847;32;316849;-80
2023/09/04 13:31:22;;;;;;;3.33;3.03;;;;;;;;;;4381901;32;315580;-80
2023/09/04 13:33:51;;;;;;;3.67;2.97;;;;;;;;;;4372385;32;316858;-81
2023/09/04 13:36:18;;;;;;;4.90;3.95;;;;;;;;;;4378075;32;317046;-80
2023/09/04 13:38:45;;;;;;;3.90;3.37;;;;;;;;;;4373198;32;316763;-80
2023/09/04 13:41:13;;;;;;;4.25;3.90;;;;;;;;;;4382107;32;317153;-81
2023/09/04 13:43:42;;;;;;;3.55;3.20;;;;;;;;;;4382953;32;316858;-82
2023/09/04 13:46:10;;;;;;;4.35;3.70;;;;;;;;;;4369074;32;386620;-80
2023/09/04 13:48:37;;;;;;;7.10;3.58;;;;;;;;;;4380918;32;317038;-80
2023/09/04 13:51:06;;;;;;;4.80;3.50;;;;;;;;;;4373798;32;316797;-81
2023/09/04 13:53:34;;;;;;;4.72;3.58;;;;;;;;;;4381993;32;316971;-80
2023/09/04 13:56:01;;;;;;;6.70;3.75;;;;;;;;;;4367578;32;316952;-80
2023/09/04 13:58:28;;;;;;;4.95;4.22;;;;;;;;;;4382358;32;316809;-80
2023/09/04 14:00:56;;;;;;;4.90;3.60;;;;;;;;;;4368499;32;354505;-80
2023/09/04 14:03:23;;;;;;;4.72;3.65;;;;;;;;;;4382147;32;316787;-80
2023/09/04 14:05:52;;;;;;;4.57;3.67;;;;;;;;;;4372231;32;317160;-82
2023/09/04 14:08:21;;;;;;;7.62;3.40;;;;;;;;;;4381239;32;316870;-81
2023/09/04 14:10:50;;;;;;;4.15;3.22;;;;;;;;;;4373302;32;317005;-80
2023/09/04 14:13:17;;;;;;;7.60;2.80;;;;;;;;;;4383210;32;317560;-80
2023/09/04 14:15:45;;;;;;;4.47;3.20;;;;;;;;;;4372345;32;364132;-80
2023/09/04 14:18:12;;;;;;;4.95;3.22;;;;;;;;;;4378210;32;316739;-80
2023/09/04 14:20:41;;;;;;;3.83;2.80;;;;;;;;;;4381704;32;355804;-80
2023/09/04 14:23:09;;;;;;;3.95;2.67;;;;;;;;;;4367978;32;416092;-79
2023/09/04 14:25:38;;;;;;;3.15;2.60;;;;;;;;;;4381410;32;317574;-80
2023/09/04 14:28:05;;;;;;;3.58;3.00;;;;;;;;;;4364494;32;417513;-80
2023/09/04 14:30:33;;;;;;;3.97;2.65;;;;;;;;;;4382217;32;316808;-81
2023/09/04 14:33:01;;;;;;;5.37;2.55;;;;;;;;;;4372389;32;317271;-80
2023/09/04 14:35:29;;;;;;;7.40;2.85;;;;;;;;;;4383180;32;316591;-80